Time;durP1;ratioP1;P1;durP2;ratioP2;P2;SDS_P1;SDS_P2;PMS_P1;PMS_P2;Temp;Humidity;BMP_temperature;BMP_pressure;BME280_temperature;BME280_humidity;BME280_pressure;Samples;Min_cycle;Max_cycle;Signal;HPM_P1;HPM_P2
2023/07/12 00:01:31;;;;;;;5.22;2.50;;;19.30;90.70;;;;;;5050801;28;20036;-47
2023/07/12 00:03:59;;;;;;;5.93;2.92;;;19.30;90.80;;;;;;5052641;28;20377;-47
2023/07/12 00:06:41;;;;;;;7.38;3.00;;;19.20;90.80;;;;;;5050622;28;20032;-47
2023/07/12 00:09:13;;;;;;;11.82;3.70;;;19.30;91.00;;;;;;5047746;28;20048;-45
2023/07/12 00:11:41;;;;;;;7.22;2.97;;;19.20;91.20;;;;;;5053327;28;20021;-44
2023/07/12 00:14:07;;;;;;;7.18;4.07;;;19.20;91.30;;;;;;5047120;28;20032;-45
2023/07/12 00:16:39;;;;;;;7.72;3.50;;;19.10;91.30;;;;;;5045349;28;20576;-44
2023/07/12 00:19:12;;;;;;;5.40;3.33;;;19.10;91.50;;;;;;5050196;28;20064;-44
2023/07/12 00:21:37;;;;;;;6.65;3.17;;;19.00;91.50;;;;;;5026475;28;20431;-43
2023/07/12 00:24:11;;;;;;;9.93;4.85;;;19.10;91.70;;;;;;5050042;28;20124;-43
2023/07/12 00:26:38;;;;;;;7.68;3.50;;;19.00;91.60;;;;;;5050767;28;20041;-44
2023/07/12 00:29:10;;;;;;;7.75;3.65;;;19.00;91.80;;;;;;5048132;28;20030;-43
2023/07/12 00:31:38;;;;;;;9.32;4.35;;;18.90;91.80;;;;;;5046797;28;20025;-43
2023/07/12 00:34:06;;;;;;;7.78;3.45;;;18.90;91.80;;;;;;5044504;28;20029;-43
2023/07/12 00:36:33;;;;;;;7.40;3.90;;;18.90;92.00;;;;;;5037347;28;20020;-43
2023/07/12 00:39:00;;;;;;;5.22;3.17;;;18.90;92.10;;;;;;5051671;28;20037;-44
2023/07/12 00:42:09;;;;;;;8.85;4.00;;;18.90;92.10;;;;;;5052939;28;20029;-44
2023/07/12 00:44:44;;;;;;;8.00;4.07;;;18.90;92.20;;;;;;5038785;28;20059;-44
2023/07/12 00:47:14;;;;;;;10.75;3.72;;;18.90;92.30;;;;;;5048585;28;20047;-43
2023/07/12 00:49:44;;;;;;;7.78;4.18;;;18.90;92.40;;;;;;5052077;28;20100;-44
2023/07/12 00:52:21;;;;;;;8.45;3.60;;;18.90;92.40;;;;;;5050841;28;20065;-44
2023/07/12 00:54:54;;;;;;;4.88;3.30;;;18.90;92.40;;;;;;5037201;28;20049;-43
2023/07/12 00:57:24;;;;;;;6.22;3.10;;;18.90;92.40;;;;;;5044333;28;20348;-45
2023/07/12 00:59:55;;;;;;;6.68;2.60;;;18.90;92.40;;;;;;5055728;28;20040;-42
2023/07/12 01:02:25;;;;;;;7.10;3.13;;;18.90;92.50;;;;;;5053835;28;20061;-44
2023/07/12 01:04:59;;;;;;;9.35;4.20;;;18.90;92.50;;;;;;5036479;28;20033;-43
2023/07/12 01:07:28;;;;;;;6.68;3.35;;;18.90;92.50;;;;;;5025849;28;20438;-43
2023/07/12 01:09:55;;;;;;;7.93;2.75;;;18.90;92.60;;;;;;5055241;28;20029;-43
2023/07/12 01:12:22;;;;;;;7.57;3.28;;;18.90;92.70;;;;;;5033697;28;20040;-43
2023/07/12 01:14:49;;;;;;;4.68;3.00;;;18.90;92.60;;;;;;5047839;28;20067;-43
2023/07/12 01:17:16;;;;;;;6.90;2.80;;;18.90;92.70;;;;;;5052200;28;20503;-43
2023/07/12 01:19:42;;;;;;;6.05;3.70;;;18.80;92.70;;;;;;5069925;28;20060;-44
2023/07/12 01:22:09;;;;;;;7.68;2.83;;;18.80;92.80;;;;;;5071446;28;20074;-43
2023/07/12 01:24:36;;;;;;;4.72;2.50;;;18.80;92.70;;;;;;5062501;28;20453;-43
2023/07/12 01:27:20;;;;;;;6.63;2.70;;;18.80;92.80;;;;;;5058120;28;20135;-45
2023/07/12 01:29:48;;;;;;;5.88;2.55;;;18.80;92.70;;;;;;5073423;28;20120;-47
2023/07/12 01:32:16;;;;;;;7.82;3.78;;;18.80;92.70;;;;;;5074950;28;20029;-46
2023/07/12 01:34:41;;;;;;;10.40;5.82;;;18.70;92.70;;;;;;5075724;28;20464;-46
2023/07/12 01:37:11;;;;;;;8.73;5.57;;;18.70;92.90;;;;;;5058119;28;20028;-46
2023/07/12 01:39:38;;;;;;;;;;;18.70;93.00;;;;;;5073885;28;20029;-45
2023/07/12 01:42:06;;;;;;;9.02;5.35;;;18.70;93.00;;;;;;5074734;28;19958;-45
2023/07/12 01:44:32;;;;;;;7.07;4.35;;;18.80;93.00;;;;;;5074615;28;20044;-45
2023/07/12 01:46:59;;;;;;;10.90;5.38;;;18.70;92.90;;;;;;5071803;28;20044;-45
2023/07/12 01:49:26;;;;;;;8.57;4.47;;;18.70;93.00;;;;;;5067105;28;20032;-46
2023/07/12 01:51:51;;;;;;;7.63;4.43;;;18.70;93.00;;;;;;5075070;28;20048;-44
2023/07/12 01:54:18;;;;;;;8.38;5.03;;;18.70;93.00;;;;;;5066775;28;20482;-44
2023/07/12 01:56:47;;;;;;;9.40;5.18;;;18.70;93.00;;;;;;5062155;28;20115;-45
2023/07/12 01:59:16;;;;;;;7.65;4.68;;;18.70;93.10;;;;;;5073151;28;20049;-45
2023/07/12 02:01:43;;;;;;;6.78;4.60;;;18.70;93.00;;;;;;5073497;28;20041;-45
2023/07/12 02:04:10;;;;;;;7.55;4.75;;;18.70;93.10;;;;;;5074410;28;20024;-46
2023/07/12 02:06:39;;;;;;;8.75;6.07;;;18.60;93.30;;;;;;5066194;28;20512;-46
2023/07/12 02:09:09;;;;;;;7.32;4.63;;;18.60;93.30;;;;;;5055308;28;20025;-45
2023/07/12 02:11:39;;;;;;;8.48;4.78;;;18.60;93.40;;;;;;5068308;28;20730;-45
2023/07/12 02:14:05;;;;;;;6.55;4.75;;;18.70;93.40;;;;;;5062637;28;20024;-46
2023/07/12 02:16:31;;;;;;;9.45;5.43;;;18.70;93.40;;;;;;5074307;28;20346;-44
2023/07/12 02:18:58;;;;;;;7.97;5.18;;;18.70;93.40;;;;;;5060025;28;20065;-48
2023/07/12 02:21:29;;;;;;;11.40;6.18;;;18.80;93.40;;;;;;5055053;28;20025;-46
2023/07/12 02:23:57;;;;;;;8.68;5.78;;;18.80;93.30;;;;;;5074432;28;20119;-44
2023/07/12 02:26:24;;;;;;;10.82;6.78;;;18.80;93.40;;;;;;5074148;28;20032;-44
2023/07/12 02:28:51;;;;;;;11.77;5.75;;;18.80;93.30;;;;;;5063107;28;20024;-44
2023/07/12 02:31:20;;;;;;;7.18;5.15;;;18.70;93.40;;;;;;5074030;28;20446;-45
2023/07/12 02:33:48;;;;;;;;;;;18.70;93.40;;;;;;5053024;28;20047;-44
2023/07/12 02:36:14;;;;;;;8.02;5.75;;;18.70;93.30;;;;;;5063331;28;19912;-45
2023/07/12 02:38:41;;;;;;;10.05;6.50;;;18.70;93.40;;;;;;5065469;28;20140;-44
2023/07/12 02:41:10;;;;;;;10.20;6.82;;;18.70;93.40;;;;;;5067287;28;20043;-45
2023/07/12 02:43:37;;;;;;;10.35;6.13;;;18.70;93.50;;;;;;5055999;28;20036;-44
2023/07/12 02:46:06;;;;;;;8.85;6.15;;;18.70;93.60;;;;;;5073426;28;20454;-45
2023/07/12 02:48:33;;;;;;;7.85;5.93;;;18.70;93.60;;;;;;5055354;28;20041;-44
2023/07/12 02:51:00;;;;;;;8.65;5.43;;;18.70;93.50;;;;;;5074536;28;20048;-43
2023/07/12 02:53:30;;;;;;;9.50;6.13;;;18.70;93.50;;;;;;5057192;28;20103;-43
2023/07/12 02:55:57;;;;;;;8.55;5.80;;;18.70;93.50;;;;;;5055286;28;20097;-43
2023/07/12 02:58:24;;;;;;;10.45;7.28;;;18.70;93.40;;;;;;5061045;28;20025;-44
2023/07/12 03:00:58;;;;;;;11.30;6.57;;;18.70;93.50;;;;;;5068491;28;20032;-44
2023/07/12 03:03:27;;;;;;;9.70;6.50;;;18.70;93.50;;;;;;5053838;28;20025;-44
2023/07/12 03:05:53;;;;;;;17.90;7.32;;;18.70;93.50;;;;;;5073575;28;20020;-44
2023/07/12 03:08:22;;;;;;;13.25;8.05;;;18.70;93.50;;;;;;5061123;28;20055;-44
2023/07/12 03:10:50;;;;;;;13.98;6.53;;;18.70;93.50;;;;;;5054350;28;20025;-44
2023/07/12 03:13:17;;;;;;;14.02;7.72;;;18.70;93.60;;;;;;5057538;28;20031;-44
2023/07/12 03:15:43;;;;;;;13.90;8.90;;;18.70;93.60;;;;;;5069518;28;20078;-44
2023/07/12 03:18:08;;;;;;;11.38;8.60;;;18.60;93.60;;;;;;5068340;28;20032;-44
2023/07/12 03:20:37;;;;;;;11.40;8.07;;;18.70;93.80;;;;;;5073407;28;20094;-45
2023/07/12 03:23:04;;;;;;;13.30;9.73;;;18.70;93.70;;;;;;5073574;28;20427;-44
2023/07/12 03:25:31;;;;;;;19.45;11.30;;;18.70;93.80;;;;;;5054535;28;20036;-43
2023/07/12 03:27:59;;;;;;;16.17;10.75;;;18.70;93.70;;;;;;5073284;28;20341;-45
2023/07/12 03:30:26;;;;;;;17.42;9.85;;;18.70;93.80;;;;;;5069704;28;20032;-46
2023/07/12 03:32:53;;;;;;;14.80;10.38;;;18.70;93.90;;;;;;5072671;28;20076;-43
2023/07/12 03:35:19;;;;;;;13.68;9.70;;;18.70;93.90;;;;;;5063072;28;20117;-46
2023/07/12 03:37:51;;;;;;;13.38;9.27;;;18.70;93.90;;;;;;5067069;28;20052;-44
2023/07/12 03:40:18;;;;;;;15.32;10.40;;;18.60;94.00;;;;;;5060086;28;20339;-45
2023/07/12 03:42:47;;;;;;;13.55;11.43;;;18.60;93.90;;;;;;5070798;28;20373;-44
2023/07/12 03:45:14;;;;;;;14.40;10.68;;;18.60;93.90;;;;;;5055588;28;20139;-43
2023/07/12 03:47:41;;;;;;;16.33;11.45;;;18.60;93.90;;;;;;5073106;28;20446;-43
2023/07/12 03:50:09;;;;;;;13.63;10.40;;;18.50;93.90;;;;;;5065914;28;20323;-43
2023/07/12 03:52:36;;;;;;;11.02;9.38;;;18.60;94.20;;;;;;5071983;28;20029;-43
2023/07/12 03:55:04;;;;;;;14.27;10.00;;;18.60;94.20;;;;;;5058802;28;20036;-44
2023/07/12 03:57:30;;;;;;;11.73;9.32;;;18.60;94.10;;;;;;5052393;28;20025;-44
2023/07/12 03:59:58;;;;;;;15.05;9.43;;;18.60;94.10;;;;;;5062610;28;20481;-44
2023/07/12 04:02:24;;;;;;;11.25;9.60;;;18.50;94.00;;;;;;5069271;28;20029;-43
2023/07/12 04:04:51;;;;;;;11.45;7.75;;;18.50;93.80;;;;;;5061807;28;20078;-43
2023/07/12 04:07:17;;;;;;;13.93;9.18;;;18.50;94.00;;;;;;5053227;28;20470;-44
2023/07/12 04:09:49;;;;;;;8.27;7.03;;;18.60;94.10;;;;;;5072261;28;20041;-42
2023/07/12 04:12:16;;;;;;;17.48;8.23;;;18.50;94.00;;;;;;5062342;28;20032;-43
2023/07/12 04:14:45;;;;;;;10.98;7.43;;;18.50;93.90;;;;;;5067576;28;20031;-43
2023/07/12 04:17:14;;;;;;;10.75;6.90;;;18.60;93.70;;;;;;5068328;28;20475;-43
2023/07/12 04:19:41;;;;;;;10.13;6.00;;;18.60;93.70;;;;;;5063147;28;20053;-44
2023/07/12 04:22:08;;;;;;;12.13;6.10;;;18.60;93.50;;;;;;5064166;28;20287;-43
2023/07/12 04:24:36;;;;;;;8.80;5.25;;;18.60;93.40;;;;;;5054925;28;20438;-43
2023/07/12 04:27:06;;;;;;;8.43;5.70;;;18.60;93.40;;;;;;5069661;28;20040;-43
2023/07/12 04:29:33;;;;;;;10.50;5.50;;;18.60;93.40;;;;;;5063686;28;20021;-43
2023/07/12 04:32:00;;;;;;;13.98;6.35;;;18.60;93.30;;;;;;5071227;28;20040;-43
2023/07/12 04:34:27;;;;;;;9.60;6.28;;;18.60;93.20;;;;;;5071490;28;20027;-43
2023/07/12 04:36:54;;;;;;;9.05;6.15;;;18.60;93.10;;;;;;5053577;28;20036;-44
2023/07/12 04:39:25;;;;;;;16.65;7.07;;;18.60;93.00;;;;;;5070710;28;20041;-43
2023/07/12 04:41:52;;;;;;;12.77;5.68;;;18.50;92.90;;;;;;5070897;28;20035;-43
2023/07/12 04:44:18;;;;;;;9.65;6.30;;;18.50;93.10;;;;;;5070390;28;20043;-43
2023/07/12 04:46:47;;;;;;;7.90;5.53;;;18.50;92.90;;;;;;5064857;28;20155;-44
2023/07/12 04:49:14;;;;;;;11.02;5.05;;;18.60;92.90;;;;;;5067689;28;20103;-43
2023/07/12 04:51:40;;;;;;;13.98;6.45;;;18.50;93.00;;;;;;5065146;28;20098;-42
2023/07/12 04:54:10;;;;;;;11.75;7.05;;;18.50;93.00;;;;;;5052518;28;20025;-43
2023/07/12 04:56:38;;;;;;;10.85;5.68;;;18.50;92.80;;;;;;5070011;28;20040;-43
2023/07/12 04:59:05;;;;;;;10.43;6.35;;;18.40;92.80;;;;;;5067090;28;20025;-42
2023/07/12 05:01:32;;;;;;;9.77;6.32;;;18.40;92.70;;;;;;5065922;28;20166;-43
2023/07/12 05:04:01;;;;;;;12.85;5.93;;;18.30;92.70;;;;;;5070154;28;20040;-42
2023/07/12 05:06:29;;;;;;;8.65;6.25;;;18.30;92.90;;;;;;5071387;28;20036;-43
2023/07/12 05:08:56;;;;;;;10.30;5.60;;;18.30;93.00;;;;;;5066664;28;20037;-43
2023/07/12 05:11:23;;;;;;;11.80;6.22;;;18.20;92.90;;;;;;5057243;28;20548;-42
2023/07/12 05:13:50;;;;;;;9.35;6.63;;;18.20;92.90;;;;;;5067327;28;20031;-42
2023/07/12 05:16:16;;;;;;;12.77;6.15;;;18.20;92.70;;;;;;5064491;28;20040;-43
2023/07/12 05:18:43;;;;;;;9.32;6.22;;;18.20;92.90;;;;;;5050218;28;20140;-42
2023/07/12 05:21:10;;;;;;;10.43;6.18;;;18.20;92.80;;;;;;5058057;28;20115;-44
2023/07/12 05:23:38;;;;;;;10.75;6.22;;;18.20;92.80;;;;;;5066799;28;20040;-43
2023/07/12 05:26:07;;;;;;;14.55;7.28;;;18.30;92.90;;;;;;5067972;28;20021;-42
2023/07/12 05:28:35;;;;;;;10.27;5.80;;;18.30;92.80;;;;;;5071241;28;20024;-43
2023/07/12 05:31:10;;;;;;;7.25;6.32;;;18.30;92.70;;;;;;5071498;28;20025;-44
2023/07/12 05:33:41;;;;;;;12.25;6.43;;;18.30;92.60;;;;;;5052368;28;20449;-42
2023/07/12 05:36:10;;;;;;;13.43;5.95;;;18.30;92.60;;;;;;5070748;28;20040;-46
2023/07/12 05:38:37;;;;;;;11.40;7.95;;;18.40;92.70;;;;;;5072935;28;20028;-43
2023/07/12 05:41:04;;;;;;;12.20;6.60;;;18.30;92.60;;;;;;5066111;28;20028;-43
2023/07/12 05:43:31;;;;;;;11.13;7.75;;;18.40;92.60;;;;;;5074893;28;20549;-43
2023/07/12 05:45:57;;;;;;;12.35;7.65;;;18.40;92.40;;;;;;5070086;28;20055;-42
2023/07/12 05:48:23;;;;;;;12.13;8.13;;;18.40;92.20;;;;;;5054276;28;20033;-42
2023/07/12 05:50:52;;;;;;;14.13;7.57;;;18.40;92.20;;;;;;5075090;28;20025;-42
2023/07/12 05:53:19;;;;;;;10.25;6.25;;;18.40;92.20;;;;;;5073371;28;20025;-43
2023/07/12 05:55:46;;;;;;;10.68;7.13;;;18.40;91.80;;;;;;5055689;28;20473;-43
2023/07/12 05:58:13;;;;;;;8.43;6.40;;;18.40;91.60;;;;;;5068147;28;20025;-41
2023/07/12 06:00:42;;;;;;;13.05;6.65;;;18.40;91.10;;;;;;5072642;28;20067;-43
2023/07/12 06:03:11;;;;;;;12.88;6.18;;;18.30;91.10;;;;;;5065215;28;20401;-43
2023/07/12 06:05:41;;;;;;;14.02;5.80;;;18.30;91.30;;;;;;5073123;28;20119;-41
2023/07/12 06:08:08;;;;;;;14.75;6.95;;;18.40;91.40;;;;;;5057510;28;20025;-44
2023/07/12 06:10:40;;;;;;;15.40;6.72;;;18.20;91.10;;;;;;5071411;28;20107;-41
2023/07/12 06:13:11;;;;;;;9.15;5.88;;;18.20;91.60;;;;;;5072351;28;20024;-41
2023/07/12 06:15:38;;;;;;;13.50;6.55;;;18.30;91.30;;;;;;5072578;28;20356;-43
2023/07/12 06:18:04;;;;;;;16.58;6.13;;;18.40;91.50;;;;;;5069575;28;20029;-42
2023/07/12 06:20:31;;;;;;;13.98;5.78;;;18.60;91.60;;;;;;5074174;28;20036;-42
2023/07/12 06:22:58;;;;;;;11.70;5.78;;;18.60;90.80;;;;;;5062910;28;20429;-42
2023/07/12 06:25:25;;;;;;;13.45;5.75;;;18.60;90.80;;;;;;5071771;28;20032;-45
2023/07/12 06:27:52;;;;;;;12.13;4.47;;;18.60;90.30;;;;;;5073653;28;20064;-43
2023/07/12 06:30:22;;;;;;;9.65;5.05;;;18.70;90.60;;;;;;5051388;28;20029;-43
2023/07/12 06:32:49;;;;;;;;;;;18.70;90.30;;;;;;5072263;28;20102;-44
2023/07/12 06:35:14;;;;;;;10.25;5.15;;;18.80;90.10;;;;;;5074846;28;19904;-43
2023/07/12 06:37:44;;;;;;;14.68;6.75;;;18.90;89.70;;;;;;5068332;28;20436;-44
2023/07/12 06:40:11;;;;;;;14.40;5.53;;;18.90;88.90;;;;;;5073843;28;20028;-45
2023/07/12 06:42:41;;;;;;;11.57;5.53;;;18.90;89.20;;;;;;5069924;28;20033;-43
2023/07/12 06:45:08;;;;;;;12.98;5.82;;;18.90;89.30;;;;;;5067871;28;20097;-44
2023/07/12 06:47:34;;;;;;;12.45;5.55;;;18.70;88.70;;;;;;5074384;28;20040;-43
2023/07/12 06:50:01;;;;;;;13.02;5.40;;;18.70;89.10;;;;;;5058398;28;20029;-46
2023/07/12 06:52:29;;;;;;;11.65;7.40;;;18.60;89.10;;;;;;5070258;28;20021;-44
2023/07/12 06:54:56;;;;;;;11.27;5.93;;;18.60;89.00;;;;;;5066389;28;20029;-45
2023/07/12 06:57:22;;;;;;;12.00;6.55;;;18.50;88.80;;;;;;5048727;28;20082;-44
2023/07/12 06:59:49;;;;;;;12.45;6.45;;;18.40;89.10;;;;;;5051347;28;20375;-46
2023/07/12 07:02:16;;;;;;;9.40;5.47;;;18.50;89.40;;;;;;5049303;28;20468;-44
2023/07/12 07:04:43;;;;;;;12.23;5.63;;;18.50;89.80;;;;;;5068310;28;20347;-46
2023/07/12 07:07:09;;;;;;;12.43;5.72;;;18.70;89.70;;;;;;5069006;28;20810;-45
2023/07/12 07:09:38;;;;;;;17.42;6.30;;;18.90;89.50;;;;;;5056408;28;20032;-46
2023/07/12 07:12:06;;;;;;;13.35;6.05;;;19.10;89.40;;;;;;5069080;28;20036;-46
2023/07/12 07:14:35;;;;;;;13.57;7.20;;;19.40;88.60;;;;;;5071332;28;20039;-45
2023/07/12 07:17:04;;;;;;;13.48;5.75;;;19.40;88.20;;;;;;5073269;28;20361;-45
2023/07/12 07:19:31;;;;;;;15.18;5.80;;;19.80;87.80;;;;;;5068693;28;20474;-45
2023/07/12 07:21:58;;;;;;;12.32;5.03;;;19.90;85.90;;;;;;5072156;28;20052;-45
2023/07/12 07:24:26;;;;;;;11.65;4.82;;;20.00;85.10;;;;;;5054421;28;20083;-45
2023/07/12 07:26:56;;;;;;;7.80;4.45;;;19.90;85.10;;;;;;5072419;28;20043;-44
2023/07/12 07:29:23;;;;;;;10.38;4.70;;;20.00;85.50;;;;;;5069684;28;20028;-45
2023/07/12 07:31:50;;;;;;;7.40;3.92;;;20.30;84.60;;;;;;5067844;28;20354;-46
2023/07/12 07:34:16;;;;;;;11.18;5.03;;;20.20;83.30;;;;;;5053818;28;20024;-48
2023/07/12 07:36:43;;;;;;;10.57;4.20;;;20.00;83.90;;;;;;5072796;28;20036;-45
2023/07/12 07:39:10;;;;;;;9.82;5.40;;;19.90;84.70;;;;;;5065680;28;20032;-46
2023/07/12 07:41:37;;;;;;;7.72;3.60;;;19.70;84.60;;;;;;5054410;28;20028;-45
2023/07/12 07:44:04;;;;;;;12.82;4.85;;;19.70;84.60;;;;;;5057800;28;20032;-46
2023/07/12 07:46:32;;;;;;;11.73;4.50;;;19.60;85.60;;;;;;5071121;28;20032;-46
2023/07/12 07:48:59;;;;;;;12.00;4.43;;;20.10;85.30;;;;;;5058300;28;20403;-45
2023/07/12 07:51:29;;;;;;;10.57;4.18;;;20.30;84.30;;;;;;5062726;28;20029;-46
2023/07/12 07:53:56;;;;;;;7.88;3.45;;;20.20;83.50;;;;;;5056959;28;20115;-45
2023/07/12 07:56:23;;;;;;;10.35;4.05;;;20.30;83.90;;;;;;5055694;28;20139;-46
2023/07/12 07:58:49;;;;;;;7.28;3.97;;;20.50;83.90;;;;;;5060648;28;20033;-46
2023/07/12 08:01:16;;;;;;;10.70;4.57;;;20.90;81.90;;;;;;5069638;28;20429;-47
2023/07/12 08:03:42;;;;;;;9.38;3.95;;;21.40;80.20;;;;;;5067147;28;20477;-45
2023/07/12 08:06:10;;;;;;;7.55;3.50;;;21.50;80.50;;;;;;5072240;28;20109;-46
2023/07/12 08:08:38;;;;;;;11.25;4.10;;;21.60;79.10;;;;;;5071855;28;20079;-45
2023/07/12 08:11:07;;;;;;;8.70;3.60;;;21.80;78.20;;;;;;5060043;28;20012;-46
2023/07/12 08:13:34;;;;;;;15.30;4.00;;;21.90;79.00;;;;;;5068784;28;20068;-50
2023/07/12 08:16:01;;;;;;;9.70;3.58;;;22.30;77.50;;;;;;5052094;28;20020;-48
2023/07/12 08:18:27;;;;;;;7.25;2.95;;;22.70;75.70;;;;;;5070849;28;20059;-48
2023/07/12 08:20:54;;;;;;;11.15;3.60;;;22.90;74.50;;;;;;5072046;28;20458;-48
2023/07/12 08:23:22;;;;;;;9.48;3.65;;;23.30;74.20;;;;;;5059184;28;20044;-48
2023/07/12 08:25:52;;;;;;;8.68;4.15;;;23.70;72.70;;;;;;5070181;28;20499;-47
2023/07/12 08:28:19;;;;;;;10.50;3.83;;;24.20;71.80;;;;;;5069207;28;20422;-48
2023/07/12 08:30:46;;;;;;;11.20;3.60;;;24.30;71.40;;;;;;5068761;28;20024;-46
2023/07/12 08:33:19;;;;;;;10.38;3.22;;;24.40;69.80;;;;;;5072221;28;20112;-46
2023/07/12 08:35:46;;;;;;;11.27;4.82;;;24.70;70.60;;;;;;5066858;28;20088;-48
2023/07/12 08:38:16;;;;;;;9.75;3.50;;;24.40;67.00;;;;;;5070090;28;20043;-49
2023/07/12 08:40:46;;;;;;;8.60;3.97;;;23.80;68.50;;;;;;5070780;28;20510;-51
2023/07/12 08:43:17;;;;;;;10.27;3.17;;;23.20;70.80;;;;;;5056201;28;20040;-47
2023/07/12 08:45:48;;;;;;;12.60;4.78;;;22.80;73.10;;;;;;5060775;28;20036;-47
2023/07/12 08:48:21;;;;;;;8.43;3.35;;;22.30;72.70;;;;;;5071797;28;20047;-51
2023/07/12 08:50:49;;;;;;;9.73;3.55;;;21.70;74.60;;;;;;5065701;28;20058;-48
2023/07/12 08:53:33;;;;;;;8.77;3.40;;;21.20;76.80;;;;;;5058168;28;20342;-45
2023/07/12 08:56:01;;;;;;;8.02;2.75;;;20.70;77.40;;;;;;5057521;28;20388;-59
2023/07/12 08:58:41;;;;;;;7.97;3.42;;;20.30;78.60;;;;;;5072101;28;20021;-62
2023/07/12 09:01:15;;;;;;;10.18;3.03;;;20.00;79.90;;;;;;5069589;28;20415;-45
2023/07/12 09:03:42;;;;;;;8.25;2.58;;;19.80;81.40;;;;;;5067477;28;20032;-45
2023/07/12 09:06:15;;;;;;;7.53;2.05;;;19.40;82.70;;;;;;5071098;28;20124;-45
2023/07/12 09:08:50;;;;;;;6.40;2.25;;;19.10;83.40;;;;;;5071505;28;20070;-44
2023/07/12 09:11:20;;;;;;;5.00;1.35;;;18.80;84.50;;;;;;5061943;28;20493;-44
2023/07/12 09:13:48;;;;;;;5.88;1.88;;;18.80;84.10;;;;;;5044746;28;20062;-52
2023/07/12 09:16:32;;;;;;;4.15;1.20;;;18.60;83.90;;;;;;5070924;28;20052;-56
2023/07/12 09:19:24;;;;;;;4.03;1.42;;;18.30;85.00;;;;;;5074129;28;20651;-48
2023/07/12 09:21:57;;;;;;;7.18;1.27;;;18.00;85.40;;;;;;5064472;28;20067;-48
2023/07/12 09:24:32;;;;;;;4.00;0.95;;;17.90;85.90;;;;;;5075290;28;20484;-45
2023/07/12 09:27:12;;;;;;;3.22;1.50;;;17.70;86.60;;;;;;5055642;28;20481;-46
2023/07/12 09:29:42;;;;;;;4.10;1.38;;;17.40;86.90;;;;;;5058429;28;20437;-56
2023/07/12 09:32:25;;;;;;;5.10;1.33;;;17.50;87.20;;;;;;5065936;28;20032;-53
2023/07/12 09:34:57;;;;;;;4.05;1.48;;;17.40;87.50;;;;;;5056081;28;20513;-47
2023/07/12 09:37:24;;;;;;;5.00;2.08;;;17.40;87.80;;;;;;5074898;28;20338;-49
2023/07/12 09:40:14;;;;;;;12.10;2.88;;;17.20;88.50;;;;;;5052743;28;20029;-55
2023/07/12 09:42:46;;;;;;;;;;;17.30;89.30;;;;;;5074062;28;20032;-49
2023/07/12 09:45:13;;;;;;;6.20;3.17;;;17.40;90.10;;;;;;5071001;28;19909;-55
2023/07/12 09:47:57;;;;;;;5.78;2.70;;;17.60;90.20;;;;;;5072892;28;20461;-49
2023/07/12 09:51:05;;;;;;;5.47;2.25;;;17.70;90.20;;;;;;5074053;28;20481;-52
2023/07/12 09:53:46;;;;;;;6.10;2.28;;;17.70;90.60;;;;;;5034855;28;20055;-49
2023/07/12 09:56:49;;;;;;;7.72;3.42;;;17.80;90.70;;;;;;5070306;28;20017;-47
2023/07/12 09:59:44;;;;;;;7.70;3.92;;;17.70;90.40;;;;;;5063263;28;20148;-48
2023/07/12 10:02:29;;;;;;;9.20;4.43;;;17.80;90.80;;;;;;5073213;28;20442;-44
2023/07/12 10:04:59;;;;;;;8.55;4.45;;;18.10;91.10;;;;;;5069619;28;20037;-44
2023/07/12 10:07:43;;;;;;;12.48;5.82;;;18.50;91.40;;;;;;5071309;28;20035;-44
2023/07/12 10:10:27;;;;;;;11.32;4.88;;;19.20;91.50;;;;;;5074553;28;20028;-44
2023/07/12 10:13:12;;;;;;;11.45;4.65;;;19.20;89.80;;;;;;5073359;28;20024;-44
2023/07/12 10:15:42;;;;;;;8.18;3.90;;;19.50;89.20;;;;;;5065786;28;20405;-43
2023/07/12 10:18:21;;;;;;;8.50;3.63;;;19.50;87.90;;;;;;5073378;28;20066;-42
2023/07/12 10:20:49;;;;;;;7.25;3.88;;;19.60;87.20;;;;;;5073070;28;20098;-44
2023/07/12 10:23:18;;;;;;;6.70;2.72;;;19.80;87.90;;;;;;5054527;28;20116;-44
2023/07/12 10:25:49;;;;;;;;;;;19.90;86.70;;;;;;5056764;28;20473;-43
2023/07/12 10:28:48;;;;;;;6.50;2.13;;;20.00;86.40;;;;;;5052679;28;19916;-42
2023/07/12 10:31:36;;;;;;;4.68;2.00;;;19.90;85.40;;;;;;5065129;28;20071;-43
2023/07/12 10:34:24;;;;;;;3.92;1.95;;;20.20;86.10;;;;;;5068002;28;20043;-45
2023/07/12 10:36:57;;;;;;;9.35;3.15;;;20.40;85.70;;;;;;5067765;28;20115;-43
2023/07/12 10:39:27;;;;;;;6.97;2.83;;;20.40;85.10;;;;;;5072456;28;20028;-44
2023/07/12 10:42:50;;;;;;;7.60;3.10;;;20.40;85.20;;;;;;5069009;28;20028;-45
2023/07/12 10:45:38;;;;;;;7.07;2.92;;;20.40;85.40;;;;;;5052205;28;20047;-46
2023/07/12 10:48:09;;;;;;;7.63;2.92;;;20.60;85.50;;;;;;5048457;28;20029;-45
2023/07/12 10:50:56;;;;;;;6.53;3.10;;;20.70;84.00;;;;;;5060328;28;20106;-45
2023/07/12 10:53:47;;;;;;;7.20;3.47;;;21.00;83.90;;;;;;5055350;28;20028;-47
2023/07/12 10:56:33;;;;;;;16.25;3.92;;;20.70;82.50;;;;;;5073897;28;20095;-46
2023/07/12 10:59:03;;;;;;;8.60;3.75;;;20.70;82.00;;;;;;5057904;28;20033;-46
2023/07/12 11:01:41;;;;;;;10.85;3.85;;;20.50;82.20;;;;;;5063402;28;20099;-51
2023/07/12 11:04:22;;;;;;;10.40;4.10;;;20.50;82.90;;;;;;5070856;28;20040;-48
2023/07/12 11:07:15;;;;;;;7.60;3.45;;;20.70;83.60;;;;;;5066302;28;20051;-46
2023/07/12 11:09:47;;;;;;;6.78;3.35;;;20.90;84.60;;;;;;5045619;28;20062;-49
2023/07/12 11:12:29;;;;;;;8.15;3.47;;;21.60;84.90;;;;;;5067892;28;20013;-47
2023/07/12 11:15:24;;;;;;;9.02;3.90;;;22.40;83.80;;;;;;5055921;28;20036;-48
2023/07/12 11:18:03;;;;;;;10.75;4.13;;;22.80;79.00;;;;;;5068688;28;20032;-49
2023/07/12 11:20:35;;;;;;;10.50;3.33;;;22.90;79.20;;;;;;5047335;28;20115;-48
2023/07/12 11:23:23;;;;;;;14.15;3.72;;;22.40;77.80;;;;;;5051575;28;20029;-46
2023/07/12 11:26:27;;;;;;;6.18;2.90;;;21.60;77.50;;;;;;5051317;28;20029;-47
2023/07/12 11:29:27;;;;;;;6.45;2.72;;;21.20;78.00;;;;;;5044761;28;20041;-42
2023/07/12 11:32:12;;;;;;;;;;;21.10;79.10;;;;;;5044673;28;20090;-40
2023/07/12 11:34:43;;;;;;;7.72;3.30;;;21.10;81.90;;;;;;5036607;28;20230;-41
2023/07/12 11:37:49;;;;;;;7.60;3.20;;;21.20;82.80;;;;;;5033647;28;20048;-42
2023/07/12 11:40:35;;;;;;;6.13;1.70;;;21.00;83.10;;;;;;5021318;28;20107;-42
2023/07/12 11:43:23;;;;;;;5.72;2.00;;;20.60;79.60;;;;;;5050147;28;20497;-42
2023/07/12 11:45:55;;;;;;;6.72;2.00;;;20.50;81.50;;;;;;5033642;28;20427;-41
2023/07/12 11:48:23;;;;;;;4.80;2.20;;;20.40;80.60;;;;;;5051394;28;20044;-41
2023/07/12 11:50:52;;;;;;;6.72;2.95;;;20.30;82.20;;;;;;5052429;28;20400;-41
2023/07/12 11:53:20;;;;;;;6.28;2.28;;;20.20;82.10;;;;;;5045537;28;20025;-42
2023/07/12 11:55:50;;;;;;;4.90;2.00;;;20.00;83.20;;;;;;5045756;28;20047;-41
2023/07/12 11:58:20;;;;;;;;;;;19.90;83.80;;;;;;5034067;28;20466;-42
2023/07/12 12:00:49;;;;;;;5.82;2.08;;;19.90;84.50;;;;;;5052304;28;20335;-42
2023/07/12 12:03:17;;;;;;;7.72;2.53;;;19.90;85.70;;;;;;5044579;28;20040;-42
2023/07/12 12:05:45;;;;;;;5.18;2.85;;;20.40;87.50;;;;;;5052996;28;20021;-42
2023/07/12 12:08:17;;;;;;;5.38;2.45;;;20.60;86.50;;;;;;5049477;28;20480;-42
2023/07/12 12:10:47;;;;;;;9.00;3.20;;;20.90;85.90;;;;;;5052916;28;20048;-44
2023/07/12 12:13:23;;;;;;;6.57;3.00;;;21.10;84.40;;;;;;5033388;28;20115;-44
2023/07/12 12:16:27;;;;;;;7.32;3.28;;;21.20;83.80;;;;;;5033675;28;20021;-47
2023/07/12 12:19:00;;;;;;;9.20;3.55;;;21.40;83.10;;;;;;5032364;28;20051;-46
2023/07/12 12:21:29;;;;;;;5.78;2.58;;;21.80;83.00;;;;;;5052848;28;20464;-46
2023/07/12 12:24:13;;;;;;;10.30;2.80;;;21.80;81.70;;;;;;5043750;28;20032;-46
2023/07/12 12:26:41;;;;;;;5.28;2.33;;;22.00;79.80;;;;;;5052503;28;20055;-45
2023/07/12 12:29:28;;;;;;;6.13;2.47;;;21.60;77.80;;;;;;5052354;28;20013;-46
2023/07/12 12:32:16;;;;;;;7.18;2.10;;;21.60;79.10;;;;;;5046979;28;20112;-48
2023/07/12 12:34:51;;;;;;;11.52;2.47;;;21.20;79.80;;;;;;5051251;28;20366;-46
2023/07/12 12:37:27;;;;;;;8.77;2.58;;;20.80;78.80;;;;;;5041682;28;20055;-46
2023/07/12 12:40:04;;;;;;;6.45;2.25;;;20.60;78.70;;;;;;5049146;28;20025;-49
2023/07/12 12:42:32;;;;;;;6.43;2.10;;;20.40;79.10;;;;;;5044821;28;20039;-46
2023/07/12 12:44:59;;;;;;;10.73;2.38;;;20.20;79.10;;;;;;5049022;28;20076;-47
2023/07/12 12:47:31;;;;;;;3.65;2.00;;;20.30;79.50;;;;;;5048118;28;20067;-46
2023/07/12 12:49:59;;;;;;;9.63;2.78;;;20.30;78.10;;;;;;5051200;28;20366;-48
2023/07/12 12:52:28;;;;;;;6.95;2.35;;;20.20;78.70;;;;;;5054219;28;20059;-48
2023/07/12 12:54:59;;;;;;;6.35;2.65;;;20.30;78.60;;;;;;5053721;28;20021;-47
2023/07/12 12:57:28;;;;;;;7.90;2.83;;;20.50;78.90;;;;;;5054329;28;20465;-47
2023/07/12 12:59:55;;;;;;;6.88;2.80;;;20.70;78.10;;;;;;5048658;28;20041;-47
2023/07/12 13:02:22;;;;;;;6.22;2.33;;;20.60;77.50;;;;;;5053468;28;20421;-50
2023/07/12 13:04:49;;;;;;;4.18;1.83;;;20.50;76.30;;;;;;5052140;28;20100;-46